Time;durP1;ratioP1;P1;durP2;ratioP2;P2;SDS_P1;SDS_P2;PMS_P1;PMS_P2;Temp;Humidity;BMP_temperature;BMP_pressure;BME280_temperature;BME280_humidity;BME280_pressure;Samples;Min_cycle;Max_cycle;Signal;HPM_P1;HPM_P2
2023/12/25 00:01:23;;;;;;;15.88;3.58;;;12.30;99.90;;;;;;5085182;28;20540;-61
2023/12/25 00:03:48;;;;;;;15.35;2.70;;;12.30;99.90;;;;;;5081415;28;20044;-62
2023/12/25 00:06:14;;;;;;;16.90;2.67;;;12.20;99.90;;;;;;5082934;28;20393;-62
2023/12/25 00:08:40;;;;;;;17.45;3.30;;;12.20;99.90;;;;;;5082675;28;20086;-62
2023/12/25 00:11:06;;;;;;;15.02;3.97;;;12.30;99.90;;;;;;5084467;28;20484;-62
2023/12/25 00:13:31;;;;;;;14.40;2.83;;;12.30;99.90;;;;;;5083482;28;20040;-62
2023/12/25 00:15:57;;;;;;;16.80;3.00;;;12.30;99.90;;;;;;5083434;28;20044;-62
2023/12/25 00:18:23;;;;;;;20.10;3.50;;;12.30;99.90;;;;;;5083179;28;20042;-62
2023/12/25 00:20:49;;;;;;;17.23;3.40;;;12.30;99.90;;;;;;5084331;28;20352;-62
2023/12/25 00:23:14;;;;;;;11.43;2.58;;;12.30;99.90;;;;;;5076246;28;20377;-62
2023/12/25 00:25:40;;;;;;;16.77;3.05;;;12.30;99.90;;;;;;5080740;28;20863;-61
2023/12/25 00:28:06;;;;;;;14.45;3.28;;;12.20;99.90;;;;;;5083860;28;20051;-63
2023/12/25 00:30:31;;;;;;;18.40;2.78;;;12.20;99.90;;;;;;5083058;28;20067;-62
2023/12/25 00:32:57;;;;;;;21.25;3.75;;;12.20;99.90;;;;;;5080802;28;20616;-63
2023/12/25 00:35:23;;;;;;;17.38;2.65;;;12.20;99.90;;;;;;5082455;28;20448;-62
2023/12/25 00:37:48;;;;;;;12.60;2.50;;;12.20;99.90;;;;;;5081945;28;20032;-62
2023/12/25 00:40:14;;;;;;;19.73;3.40;;;12.30;99.90;;;;;;5085404;28;20084;-62
2023/12/25 00:42:40;;;;;;;19.45;3.03;;;12.30;99.90;;;;;;5083499;28;20221;-61
2023/12/25 00:45:06;;;;;;;14.75;3.10;;;12.30;99.90;;;;;;5083213;28;20067;-62
2023/12/25 00:47:31;;;;;;;15.90;2.75;;;12.30;99.90;;;;;;5071878;28;20123;-63
2023/12/25 00:49:57;;;;;;;15.48;2.92;;;12.30;99.90;;;;;;5083781;28;20434;-62
2023/12/25 00:52:23;;;;;;;9.30;2.15;;;12.30;99.90;;;;;;5081097;28;20047;-63
2023/12/25 00:54:48;;;;;;;14.25;2.90;;;12.30;99.90;;;;;;5085231;28;20499;-62
2023/12/25 00:57:14;;;;;;;11.25;1.98;;;12.30;99.90;;;;;;5082084;28;20585;-62
2023/12/25 00:59:40;;;;;;;14.50;2.58;;;12.20;99.90;;;;;;5083064;28;20664;-63
2023/12/25 01:02:06;;;;;;;14.73;3.45;;;12.20;99.90;;;;;;5083503;28;20036;-63
2023/12/25 01:04:31;;;;;;;9.77;2.47;;;12.10;99.90;;;;;;5080471;28;20044;-63
2023/12/25 01:06:57;;;;;;;8.55;1.90;;;12.20;99.90;;;;;;5082508;28;20053;-62
2023/12/25 01:09:23;;;;;;;7.72;1.95;;;12.10;99.90;;;;;;5080265;28;20520;-62
2023/12/25 01:11:49;;;;;;;6.90;1.50;;;12.00;99.90;;;;;;5089498;28;20040;-62
2023/12/25 01:14:14;;;;;;;9.70;2.00;;;12.00;99.90;;;;;;5078472;28;20040;-62
2023/12/25 01:16:41;;;;;;;8.30;2.15;;;12.00;99.90;;;;;;5078739;28;20570;-64
2023/12/25 01:19:07;;;;;;;6.82;1.73;;;12.00;99.90;;;;;;5081982;28;20153;-63
2023/12/25 01:21:32;;;;;;;7.95;1.95;;;12.00;99.90;;;;;;5080954;28;20188;-63
2023/12/25 01:23:58;;;;;;;8.18;1.73;;;12.00;99.90;;;;;;5082839;28;20073;-63
2023/12/25 01:26:24;;;;;;;12.13;2.28;;;11.90;99.90;;;;;;5082700;28;20532;-63
2023/12/25 01:28:50;;;;;;;9.27;2.00;;;12.00;99.90;;;;;;5084087;28;20109;-63
2023/12/25 01:31:17;;;;;;;9.90;2.15;;;12.00;99.90;;;;;;5081845;28;20038;-63
2023/12/25 01:33:43;;;;;;;10.65;2.83;;;11.90;99.90;;;;;;5079550;28;20078;-62
2023/12/25 01:36:08;;;;;;;13.18;2.67;;;12.00;99.90;;;;;;5084490;28;20062;-62
2023/12/25 01:38:34;;;;;;;14.52;2.28;;;12.00;99.90;;;;;;5081093;28;20617;-63
2023/12/25 01:41:00;;;;;;;13.90;2.15;;;11.80;99.90;;;;;;5082567;28;20039;-62
2023/12/25 01:43:26;;;;;;;14.18;2.42;;;11.70;99.90;;;;;;5081891;28;20530;-64
2023/12/25 01:45:51;;;;;;;8.57;2.10;;;11.80;99.90;;;;;;5080287;28;20166;-63
2023/12/25 01:48:17;;;;;;;8.80;2.55;;;11.70;99.90;;;;;;5082301;28;20434;-63
2023/12/25 01:50:43;;;;;;;9.32;2.13;;;11.70;99.90;;;;;;5082072;28;20032;-62
2023/12/25 01:53:09;;;;;;;13.40;2.45;;;11.80;99.90;;;;;;5082742;28;20074;-63
2023/12/25 01:55:36;;;;;;;9.52;1.85;;;11.70;99.90;;;;;;5079400;28;20036;-63
2023/12/25 01:58:02;;;;;;;13.98;2.85;;;11.70;99.90;;;;;;5081876;28;20040;-62
2023/12/25 02:00:27;;;;;;;13.02;2.50;;;11.60;99.90;;;;;;5081902;28;20079;-62
2023/12/25 02:02:53;;;;;;;9.68;2.53;;;11.70;99.90;;;;;;5081744;28;20044;-63
2023/12/25 02:05:19;;;;;;;12.25;2.88;;;11.60;99.90;;;;;;5082382;28;20516;-64
2023/12/25 02:07:47;;;;;;;14.75;2.67;;;11.50;99.90;;;;;;5080998;28;20042;-63
2023/12/25 02:10:26;;;;;;;10.75;2.17;;;11.60;99.90;;;;;;5081431;28;20511;-63
2023/12/25 02:12:52;;;;;;;11.13;2.38;;;11.50;99.90;;;;;;5079226;28;20502;-62
2023/12/25 02:15:18;;;;;;;8.57;2.30;;;11.60;99.90;;;;;;5081260;28;20298;-64
2023/12/25 02:17:44;;;;;;;16.42;3.25;;;11.50;99.90;;;;;;5082348;28;20545;-63
2023/12/25 02:20:11;;;;;;;10.73;2.50;;;11.60;99.90;;;;;;5078561;28;20238;-63
2023/12/25 02:22:38;;;;;;;19.90;3.72;;;11.60;99.90;;;;;;5092420;28;20047;-63
2023/12/25 02:25:11;;;;;;;12.48;2.55;;;11.50;99.90;;;;;;5085146;28;20144;-62
2023/12/25 02:27:36;;;;;;;11.23;2.55;;;11.50;99.90;;;;;;5081354;28;20387;-63
2023/12/25 02:30:03;;;;;;;16.85;2.80;;;11.50;99.90;;;;;;5081438;28;20090;-63
2023/12/25 02:32:29;;;;;;;14.02;2.55;;;11.60;99.90;;;;;;5080572;28;20105;-62
2023/12/25 02:34:55;;;;;;;17.48;3.97;;;11.60;99.90;;;;;;5082356;28;20086;-63
2023/12/25 02:37:21;;;;;;;14.00;2.55;;;11.50;99.90;;;;;;5080975;28;20039;-62
2023/12/25 02:39:47;;;;;;;12.10;2.70;;;11.50;99.90;;;;;;5077575;28;20040;-63
2023/12/25 02:42:12;;;;;;;14.45;3.65;;;11.60;99.90;;;;;;5079892;28;20134;-63
2023/12/25 02:44:38;;;;;;;18.17;2.13;;;11.50;99.90;;;;;;5079852;28;20089;-62
2023/12/25 02:47:04;;;;;;;20.42;3.10;;;11.50;99.90;;;;;;5084803;28;20083;-63
2023/12/25 02:49:30;;;;;;;20.00;2.72;;;11.50;99.90;;;;;;5080843;28;20052;-62
2023/12/25 02:51:55;;;;;;;19.75;3.58;;;11.50;99.90;;;;;;5082709;28;20036;-63
2023/12/25 02:54:21;;;;;;;18.58;3.17;;;11.50;99.90;;;;;;5080831;28;20567;-63
2023/12/25 02:56:47;;;;;;;21.67;3.35;;;11.50;99.90;;;;;;5079689;28;20040;-63
2023/12/25 02:59:12;;;;;;;17.45;2.92;;;11.50;99.90;;;;;;5075862;28;20044;-63
2023/12/25 03:01:38;;;;;;;15.55;2.95;;;11.50;99.90;;;;;;5080976;28;20044;-63
2023/12/25 03:04:04;;;;;;;21.08;3.03;;;11.40;99.90;;;;;;5083042;28;20044;-63
2023/12/25 03:06:30;;;;;;;17.33;2.70;;;11.50;99.90;;;;;;5079407;28;20055;-62
2023/12/25 03:08:55;;;;;;;15.50;2.40;;;11.50;99.90;;;;;;5083846;28;20544;-63
2023/12/25 03:11:21;;;;;;;22.27;3.47;;;11.50;99.90;;;;;;5084465;28;20057;-63
2023/12/25 03:13:47;;;;;;;19.13;3.00;;;11.50;99.90;;;;;;5078433;28;20103;-63
2023/12/25 03:16:13;;;;;;;14.07;3.08;;;11.50;99.90;;;;;;5080247;28;20058;-63
2023/12/25 03:18:38;;;;;;;16.98;3.45;;;11.40;99.90;;;;;;5084412;28;20044;-62
2023/12/25 03:21:04;;;;;;;11.93;2.33;;;11.40;99.90;;;;;;5080847;28;20074;-63
2023/12/25 03:23:30;;;;;;;13.05;2.38;;;11.50;99.90;;;;;;5081626;28;20047;-63
2023/12/25 03:25:56;;;;;;;17.77;2.97;;;11.60;99.90;;;;;;5080326;28;20039;-62
2023/12/25 03:28:23;;;;;;;16.85;2.63;;;11.60;99.90;;;;;;5076906;28;20080;-63
2023/12/25 03:30:49;;;;;;;11.48;2.75;;;11.50;99.90;;;;;;5080979;28;20036;-63
2023/12/25 03:33:15;;;;;;;15.55;3.00;;;11.60;99.90;;;;;;5085379;28;20259;-63
2023/12/25 03:35:41;;;;;;;12.63;2.47;;;11.50;99.90;;;;;;5086936;28;20546;-63
2023/12/25 03:38:07;;;;;;;18.60;2.63;;;11.50;99.90;;;;;;5085863;28;20067;-63
2023/12/25 03:40:33;;;;;;;13.50;2.63;;;11.40;99.90;;;;;;5088797;28;20069;-63
2023/12/25 03:42:59;;;;;;;17.00;3.55;;;11.40;99.90;;;;;;5086942;28;20492;-63
2023/12/25 03:45:24;;;;;;;9.52;2.35;;;11.30;99.90;;;;;;5085534;28;20040;-62
2023/12/25 03:47:51;;;;;;;14.25;2.97;;;11.30;99.90;;;;;;5084416;28;20036;-62
2023/12/25 03:50:17;;;;;;;7.88;2.35;;;11.20;99.90;;;;;;5087045;28;20093;-63
2023/12/25 03:52:43;;;;;;;11.90;2.25;;;11.30;99.90;;;;;;5081653;28;20043;-62
2023/12/25 03:55:08;;;;;;;13.80;2.70;;;11.20;99.90;;;;;;5076037;28;20090;-62
2023/12/25 03:57:34;;;;;;;11.10;2.50;;;11.20;99.90;;;;;;5086790;28;20526;-61
2023/12/25 04:00:00;;;;;;;12.90;3.05;;;11.20;99.90;;;;;;5084910;28;20044;-63
2023/12/25 04:02:26;;;;;;;17.70;2.63;;;11.20;99.90;;;;;;5082442;28;20121;-63
2023/12/25 04:04:51;;;;;;;15.68;2.83;;;11.30;99.90;;;;;;5085233;28;20623;-63
2023/12/25 04:07:17;;;;;;;11.73;2.03;;;11.30;99.90;;;;;;5084062;28;20036;-63
2023/12/25 04:09:43;;;;;;;14.65;2.33;;;11.30;99.90;;;;;;5084581;28;20047;-63
2023/12/25 04:12:09;;;;;;;12.95;2.50;;;11.30;99.90;;;;;;5089300;28;20067;-62
2023/12/25 04:14:39;;;;;;;10.68;2.17;;;11.30;99.90;;;;;;5084353;28;20044;-63
2023/12/25 04:17:04;;;;;;;12.25;2.55;;;11.30;99.90;;;;;;5083537;28;20208;-63
2023/12/25 04:19:31;;;;;;;13.45;2.92;;;11.30;99.90;;;;;;5096621;28;20051;-63
2023/12/25 04:21:57;;;;;;;17.83;3.53;;;11.30;99.90;;;;;;5081439;28;20039;-63
2023/12/25 04:24:23;;;;;;;13.25;2.85;;;11.30;99.90;;;;;;5083574;28;20047;-64
2023/12/25 04:26:48;;;;;;;12.82;2.30;;;11.30;99.90;;;;;;5084020;28;20043;-64
2023/12/25 04:29:14;;;;;;;14.50;2.42;;;11.40;99.90;;;;;;5083946;28;20048;-64
2023/12/25 04:31:40;;;;;;;15.80;2.35;;;11.40;99.90;;;;;;5072966;28;20051;-64
2023/12/25 04:34:05;;;;;;;16.05;3.03;;;11.40;99.90;;;;;;5085955;28;20119;-63
2023/12/25 04:36:31;;;;;;;15.18;2.45;;;11.40;99.90;;;;;;5076006;28;20133;-63
2023/12/25 04:38:58;;;;;;;13.13;2.60;;;11.30;99.90;;;;;;5077773;28;20478;-64
2023/12/25 04:41:24;;;;;;;13.85;2.58;;;11.30;99.90;;;;;;5073086;28;20037;-63
2023/12/25 04:43:50;;;;;;;8.68;1.92;;;11.30;99.90;;;;;;5076822;28;20071;-63
2023/12/25 04:46:17;;;;;;;11.00;2.60;;;11.40;99.90;;;;;;5084041;28;20047;-63
2023/12/25 04:48:43;;;;;;;15.00;2.55;;;11.30;99.90;;;;;;5081531;28;20510;-63
2023/12/25 04:51:08;;;;;;;16.75;2.45;;;11.30;99.90;;;;;;5083525;28;20062;-63
2023/12/25 04:53:36;;;;;;;13.10;2.88;;;11.20;99.90;;;;;;5093243;28;20039;-63
2023/12/25 04:56:02;;;;;;;10.75;1.88;;;11.20;99.90;;;;;;5083410;28;20067;-63
2023/12/25 04:58:28;;;;;;;17.30;2.75;;;11.10;99.90;;;;;;5082888;28;20128;-63
2023/12/25 05:00:54;;;;;;;13.23;2.50;;;11.20;99.90;;;;;;5083193;28;20126;-63
2023/12/25 05:03:21;;;;;;;23.23;3.33;;;11.10;99.90;;;;;;5083884;28;20132;-63
2023/12/25 05:05:48;;;;;;;11.00;3.15;;;11.10;99.90;;;;;;5085379;28;20044;-63
2023/12/25 05:08:13;;;;;;;11.52;2.38;;;11.10;99.90;;;;;;5082709;28;20063;-63
2023/12/25 05:10:39;;;;;;;14.48;2.13;;;11.10;99.90;;;;;;5084806;28;20040;-64
2023/12/25 05:13:05;;;;;;;11.27;3.20;;;11.10;99.90;;;;;;5077896;28;20028;-63
2023/12/25 05:15:31;;;;;;;30.58;3.28;;;11.10;99.90;;;;;;5083466;28;20051;-63
2023/12/25 05:17:57;;;;;;;17.30;3.10;;;11.10;99.90;;;;;;5089043;28;20044;-63
2023/12/25 05:20:22;;;;;;;23.92;3.90;;;11.00;99.90;;;;;;5089346;28;20039;-63
2023/12/25 05:22:48;;;;;;;20.80;2.85;;;11.00;99.90;;;;;;5084054;28;20044;-63
2023/12/25 05:25:14;;;;;;;12.48;2.55;;;11.00;99.90;;;;;;5081902;28;20400;-63
2023/12/25 05:27:40;;;;;;;7.57;2.00;;;10.90;99.90;;;;;;5075295;28;20048;-63
2023/12/25 05:30:06;;;;;;;14.57;2.38;;;10.90;99.90;;;;;;5077327;28;20407;-63
2023/12/25 05:32:32;;;;;;;13.82;2.60;;;10.80;99.90;;;;;;5078896;28;20569;-65
2023/12/25 05:34:58;;;;;;;13.77;2.42;;;10.80;99.90;;;;;;5082447;28;20040;-63
2023/12/25 05:37:23;;;;;;;16.50;2.67;;;10.80;99.90;;;;;;5083458;28;20420;-63
2023/12/25 05:39:49;;;;;;;17.40;3.00;;;10.80;99.90;;;;;;5083905;28;20528;-63
2023/12/25 05:42:15;;;;;;;16.83;2.78;;;10.80;99.90;;;;;;5083197;28;20135;-63
2023/12/25 05:44:40;;;;;;;15.75;3.35;;;10.90;99.90;;;;;;5083211;28;20036;-63
2023/12/25 05:47:06;;;;;;;13.05;2.15;;;10.90;99.90;;;;;;5080547;28;20444;-63
2023/12/25 05:49:32;;;;;;;13.25;2.22;;;10.80;99.90;;;;;;5083344;28;20406;-63
2023/12/25 05:51:57;;;;;;;13.70;2.53;;;10.70;99.90;;;;;;5083402;28;20062;-63
2023/12/25 05:54:23;;;;;;;11.88;2.28;;;10.60;99.90;;;;;;5085269;28;20039;-63
2023/12/25 05:56:49;;;;;;;15.30;2.20;;;10.60;99.90;;;;;;5082221;28;20144;-63
2023/12/25 05:59:15;;;;;;;13.63;2.72;;;10.60;99.90;;;;;;5082918;28;20047;-64
2023/12/25 06:01:41;;;;;;;13.02;2.67;;;10.60;99.90;;;;;;5081873;28;20051;-63
2023/12/25 06:04:06;;;;;;;12.52;2.63;;;10.60;99.90;;;;;;5082962;28;20039;-63
2023/12/25 06:06:32;;;;;;;12.68;2.60;;;10.60;99.90;;;;;;5082225;28;20046;-62
2023/12/25 06:08:58;;;;;;;16.88;2.92;;;10.50;99.90;;;;;;5081235;28;20040;-63
2023/12/25 06:11:23;;;;;;;19.15;2.80;;;10.60;99.90;;;;;;5084469;28;20089;-64
2023/12/25 06:13:49;;;;;;;11.07;2.47;;;10.70;99.90;;;;;;5085582;28;20700;-63
2023/12/25 06:16:15;;;;;;;12.98;2.30;;;10.60;99.90;;;;;;5075845;28;20039;-63
2023/12/25 06:18:41;;;;;;;14.57;3.70;;;10.50;99.90;;;;;;5081423;28;20075;-64
2023/12/25 06:21:07;;;;;;;19.17;3.03;;;10.50;99.90;;;;;;5075162;28;20123;-64
2023/12/25 06:23:32;;;;;;;17.38;2.65;;;10.60;99.90;;;;;;5081286;28;20071;-63
2023/12/25 06:25:59;;;;;;;15.25;2.70;;;10.60;99.90;;;;;;5082065;28;20067;-64
2023/12/25 06:28:25;;;;;;;14.48;2.35;;;10.50;99.90;;;;;;5081492;28;20047;-63
2023/12/25 06:30:51;;;;;;;15.48;3.28;;;10.50;99.90;;;;;;5081184;28;20032;-63
2023/12/25 06:33:18;;;;;;;20.90;3.22;;;10.50;99.90;;;;;;5082096;28;20493;-64
2023/12/25 06:35:44;;;;;;;14.27;2.67;;;10.50;99.90;;;;;;5083233;28;20044;-63
2023/12/25 06:38:12;;;;;;;14.48;2.63;;;10.50;99.90;;;;;;5078509;28;20109;-63
2023/12/25 06:40:38;;;;;;;11.35;2.65;;;10.50;99.90;;;;;;5081457;28;20070;-63
2023/12/25 06:43:03;;;;;;;17.23;2.53;;;10.50;99.90;;;;;;5076769;28;20454;-63
2023/12/25 06:45:29;;;;;;;16.88;2.95;;;10.50;99.90;;;;;;5076389;28;20353;-63
2023/12/25 06:47:55;;;;;;;21.35;3.20;;;10.50;99.90;;;;;;5080386;28;20047;-63
2023/12/25 06:50:21;;;;;;;19.83;3.05;;;10.60;99.90;;;;;;5084724;28;20094;-64
2023/12/25 06:52:47;;;;;;;17.35;2.40;;;10.60;99.90;;;;;;5081350;28;20040;-64
2023/12/25 06:55:12;;;;;;;19.90;3.10;;;10.60;99.90;;;;;;5077997;28;20046;-63
2023/12/25 06:57:38;;;;;;;21.40;3.63;;;10.50;99.90;;;;;;5081588;28;20078;-64
2023/12/25 07:00:05;;;;;;;15.40;2.75;;;10.50;99.90;;;;;;5082083;28;20040;-63
2023/12/25 07:02:31;;;;;;;21.13;3.35;;;10.60;99.90;;;;;;5082796;28;20460;-64
2023/12/25 07:04:57;;;;;;;18.95;2.83;;;10.50;99.90;;;;;;5081904;28;20044;-64
2023/12/25 07:07:23;;;;;;;15.35;2.78;;;10.50;99.90;;;;;;5084660;28;20042;-63
2023/12/25 07:09:49;;;;;;;14.88;3.45;;;10.50;99.90;;;;;;5085628;28;20406;-64
2023/12/25 07:12:14;;;;;;;13.23;2.85;;;10.50;99.90;;;;;;5087938;28;20067;-63
2023/12/25 07:14:43;;;;;;;16.30;2.97;;;10.50;99.90;;;;;;5088702;28;20044;-63
2023/12/25 07:17:08;;;;;;;13.35;2.72;;;10.60;99.90;;;;;;5082470;28;20043;-64
2023/12/25 07:19:34;;;;;;;11.88;2.72;;;10.60;99.90;;;;;;5084973;28;20044;-64
2023/12/25 07:22:01;;;;;;;14.45;2.50;;;10.60;99.90;;;;;;5085058;28;20506;-63
2023/12/25 07:24:27;;;;;;;15.93;2.85;;;10.60;99.90;;;;;;5097364;28;20082;-64
2023/12/25 07:26:53;;;;;;;18.33;2.63;;;10.60;99.90;;;;;;5100378;28;20525;-64
2023/12/25 07:29:19;;;;;;;12.32;2.17;;;10.60;99.90;;;;;;5091093;28;20048;-64
2023/12/25 07:31:44;;;;;;;13.57;2.50;;;10.50;99.90;;;;;;5084140;28;20558;-63
2023/12/25 07:34:10;;;;;;;12.50;2.65;;;10.50;99.90;;;;;;5096820;28;20043;-64
2023/12/25 07:36:36;;;;;;;11.10;2.05;;;10.50;99.90;;;;;;5083240;28;20055;-63
2023/12/25 07:39:05;;;;;;;15.32;2.80;;;10.50;99.90;;;;;;5079585;28;20494;-63
2023/12/25 07:41:31;;;;;;;15.10;2.85;;;10.60;99.90;;;;;;5090394;28;20043;-64
2023/12/25 07:44:00;;;;;;;12.43;2.45;;;10.50;99.90;;;;;;5091420;28;20048;-63
2023/12/25 07:46:26;;;;;;;;;;;10.50;99.90;;;;;;5083659;28;20325;-64
2023/12/25 07:48:52;;;;;;;13.38;2.22;;;10.60;99.90;;;;;;5086198;28;19928;-63
2023/12/25 07:51:18;;;;;;;15.68;2.72;;;10.50;99.90;;;;;;5086298;28;20126;-64
2023/12/25 07:53:44;;;;;;;11.90;2.38;;;10.50;99.90;;;;;;5084407;28;20040;-63
2023/12/25 07:56:10;;;;;;;14.75;2.72;;;10.50;99.90;;;;;;5084961;28;20036;-64
2023/12/25 07:58:35;;;;;;;22.58;3.67;;;10.60;99.90;;;;;;5083649;28;20044;-63
2023/12/25 08:01:02;;;;;;;16.50;3.35;;;10.50;99.90;;;;;;5084256;28;20560;-63
2023/12/25 08:03:27;;;;;;;20.90;2.85;;;10.50;99.90;;;;;;5095812;28;20043;-63
2023/12/25 08:05:53;;;;;;;10.60;2.80;;;10.50;99.90;;;;;;5067996;28;20082;-62
2023/12/25 08:08:20;;;;;;;16.40;2.95;;;10.50;99.90;;;;;;5078849;28;20320;-63
2023/12/25 08:10:46;;;;;;;13.73;2.40;;;10.40;99.90;;;;;;5084825;28;20040;-63
2023/12/25 08:13:16;;;;;;;13.48;2.63;;;10.40;99.90;;;;;;5084220;28;20039;-63
2023/12/25 08:15:42;;;;;;;14.25;3.28;;;10.40;99.90;;;;;;5082313;28;20047;-62
2023/12/25 08:18:07;;;;;;;14.50;3.05;;;10.40;99.90;;;;;;5083561;28;20040;-62
2023/12/25 08:20:34;;;;;;;12.65;2.85;;;10.30;99.90;;;;;;5068335;28;20072;-64
2023/12/25 08:23:00;;;;;;;9.77;2.30;;;10.30;99.90;;;;;;5099123;28;20122;-62
2023/12/25 08:25:26;;;;;;;12.95;3.20;;;10.30;99.90;;;;;;5074867;28;20365;-63
2023/12/25 08:27:52;;;;;;;14.65;2.42;;;10.20;99.90;;;;;;5086370;28;20508;-62
2023/12/25 08:30:18;;;;;;;13.38;2.78;;;10.20;99.90;;;;;;5084560;28;20298;-62
2023/12/25 08:32:44;;;;;;;18.55;2.40;;;10.10;99.90;;;;;;5081483;28;20044;-63
2023/12/25 08:35:10;;;;;;;13.60;2.38;;;10.10;99.90;;;;;;5080061;28;20043;-63
2023/12/25 08:37:36;;;;;;;16.95;2.08;;;10.10;99.90;;;;;;5081298;28;20050;-63
2023/12/25 08:40:03;;;;;;;11.40;2.10;;;10.10;99.90;;;;;;5072272;28;20039;-63
2023/12/25 08:42:30;;;;;;;9.70;1.90;;;10.10;99.90;;;;;;5084403;28;20114;-63
2023/12/25 08:44:56;;;;;;;10.15;2.35;;;10.00;99.90;;;;;;5082914;28;20437;-63
2023/12/25 08:47:22;;;;;;;10.27;1.95;;;10.00;99.90;;;;;;5084274;28;20043;-61
2023/12/25 08:49:48;;;;;;;10.63;1.73;;;9.90;99.90;;;;;;5081209;28;20040;-61
2023/12/25 08:52:14;;;;;;;13.13;1.70;;;9.90;99.90;;;;;;5081674;28;20041;-62
2023/12/25 08:54:40;;;;;;;9.35;1.73;;;9.90;99.90;;;;;;5078500;28;20036;-61
2023/12/25 08:57:05;;;;;;;9.52;1.58;;;9.90;99.90;;;;;;5080533;28;20372;-61
2023/12/25 08:59:31;;;;;;;11.50;2.22;;;9.90;99.90;;;;;;5085780;28;20044;-61
2023/12/25 09:01:57;;;;;;;11.48;1.70;;;9.90;99.90;;;;;;5082820;28;20032;-61
2023/12/25 09:04:22;;;;;;;11.30;2.53;;;9.90;99.90;;;;;;5082644;28;20043;-61
2023/12/25 09:06:48;;;;;;;11.45;1.88;;;9.90;99.90;;;;;;5082102;28;20146;-61
2023/12/25 09:09:14;;;;;;;9.68;1.90;;;9.90;99.90;;;;;;5083821;28;20564;-61
2023/12/25 09:11:40;;;;;;;10.43;1.60;;;9.90;99.90;;;;;;5083285;28;20032;-62
2023/12/25 09:14:06;;;;;;;5.18;1.20;;;9.80;99.90;;;;;;5086415;28;20502;-61
2023/12/25 09:16:31;;;;;;;12.15;1.70;;;9.80;99.90;;;;;;5086276;28;20541;-61
2023/12/25 09:18:57;;;;;;;11.88;2.17;;;9.80;99.90;;;;;;5081623;28;20457;-62
2023/12/25 09:21:23;;;;;;;10.50;2.53;;;9.80;99.90;;;;;;5078064;28;20565;-61
2023/12/25 09:23:49;;;;;;;13.20;1.88;;;9.90;99.90;;;;;;5081948;28;20047;-61
2023/12/25 09:26:19;;;;;;;12.48;2.20;;;9.90;99.90;;;;;;5082055;28;20054;-61
2023/12/25 09:28:45;;;;;;;12.07;2.30;;;9.80;99.90;;;;;;5080920;28;20056;-61
2023/12/25 09:31:12;;;;;;;8.82;1.55;;;9.90;99.90;;;;;;5084194;28;20044;-61
2023/12/25 09:33:38;;;;;;;8.95;1.63;;;9.90;99.90;;;;;;5081501;28;20238;-61
2023/12/25 09:36:08;;;;;;;9.48;1.92;;;9.90;99.90;;;;;;5081107;28;20104;-61
2023/12/25 09:38:33;;;;;;;14.68;2.25;;;9.90;99.90;;;;;;5077891;28;20510;-61
2023/12/25 09:40:59;;;;;;;14.50;2.25;;;10.00;99.90;;;;;;5082234;28;20120;-62
2023/12/25 09:43:27;;;;;;;12.38;1.98;;;9.90;99.90;;;;;;5083161;28;20067;-62
2023/12/25 09:45:54;;;;;;;11.33;1.90;;;9.90;99.90;;;;;;5082444;28;20093;-61
2023/12/25 09:48:20;;;;;;;12.80;1.80;;;10.00;99.90;;;;;;5084401;28;20305;-62
2023/12/25 09:50:45;;;;;;;11.98;1.88;;;10.00;99.90;;;;;;5082297;28;20051;-61
2023/12/25 09:53:11;;;;;;;9.90;1.70;;;10.00;99.90;;;;;;5084124;28;20373;-62
2023/12/25 09:55:37;;;;;;;11.40;1.65;;;9.90;99.90;;;;;;5081763;28;20503;-61
2023/12/25 09:58:06;;;;;;;6.65;1.55;;;10.00;99.90;;;;;;5080700;28;20032;-61
2023/12/25 10:00:32;;;;;;;9.75;1.63;;;10.00;99.90;;;;;;5095050;28;20044;-61
2023/12/25 10:02:58;;;;;;;8.55;1.83;;;10.00;99.90;;;;;;5080852;28;20071;-61
2023/12/25 10:05:24;;;;;;;10.23;1.40;;;10.10;99.90;;;;;;5081626;28;20249;-62
2023/12/25 10:07:50;;;;;;;13.65;2.15;;;10.10;99.90;;;;;;5080490;28;20086;-63
2023/12/25 10:10:16;;;;;;;9.38;1.92;;;10.10;99.90;;;;;;5081909;28;20184;-61
2023/12/25 10:12:45;;;;;;;8.35;1.85;;;10.10;99.90;;;;;;5081429;28;20100;-61
2023/12/25 10:15:13;;;;;;;;;;;10.10;99.90;;;;;;5078726;28;20036;-61
2023/12/25 10:17:39;;;;;;;13.02;2.25;;;10.10;99.90;;;;;;5081664;28;19927;-61
2023/12/25 10:20:09;;;;;;;7.75;1.90;;;10.10;99.90;;;;;;5083056;28;20053;-61
2023/12/25 10:22:38;;;;;;;14.82;1.92;;;10.10;99.90;;;;;;5081474;28;20082;-61
2023/12/25 10:28:10;;;;;;;9.50;1.77;;;10.20;99.90;;;;;;3027465;22;20057;-62
2023/12/25 10:30:36;;;;;;;10.48;1.85;;;10.20;99.90;;;;;;5046469;28;20139;-62
2023/12/25 10:33:14;;;;;;;11.93;2.17;;;10.20;99.90;;;;;;5053363;28;20383;-62
2023/12/25 10:35:40;;;;;;;12.52;2.03;;;10.20;99.90;;;;;;5053672;28;20135;-62
2023/12/25 10:38:07;;;;;;;14.77;2.58;;;10.30;99.90;;;;;;5059786;28;20657;-62
2023/12/25 10:40:36;;;;;;;13.93;2.47;;;10.30;99.90;;;;;;5052502;28;20278;-62
2023/12/25 10:43:01;;;;;;;8.45;1.70;;;10.30;99.90;;;;;;5059558;28;20052;-62
2023/12/25 10:45:30;;;;;;;12.48;2.25;;;10.30;99.90;;;;;;5059332;28;20573;-62
2023/12/25 10:48:02;;;;;;;11.05;1.98;;;10.30;99.90;;;;;;5056131;28;20336;-62
2023/12/25 10:50:36;;;;;;;14.93;2.53;;;10.40;99.90;;;;;;5050957;28;20502;-62
2023/12/25 10:53:03;;;;;;;9.88;1.85;;;10.40;99.90;;;;;;5037300;28;20037;-62
2023/12/25 10:55:42;;;;;;;12.00;2.08;;;10.50;99.90;;;;;;5057748;28;20565;-62
2023/12/25 10:58:11;;;;;;;12.70;2.17;;;10.60;99.90;;;;;;5053546;28;20071;-62
2023/12/25 11:00:56;;;;;;;15.10;2.05;;;10.60;99.90;;;;;;5052367;28;20048;-62
2023/12/25 11:03:22;;;;;;;11.68;2.58;;;10.70;99.90;;;;;;5054515;28;20048;-62
2023/12/25 11:05:48;;;;;;;15.80;2.05;;;10.80;99.90;;;;;;5057285;28;20040;-63
2023/12/25 11:08:17;;;;;;;12.15;2.67;;;10.80;99.90;;;;;;5053039;28;20452;-62
2023/12/25 11:10:43;;;;;;;19.83;2.78;;;10.90;99.90;;;;;;5048732;28;20120;-63
2023/12/25 11:13:09;;;;;;;14.73;2.75;;;10.80;99.90;;;;;;5059877;28;20029;-62
2023/12/25 11:15:35;;;;;;;15.43;2.83;;;10.90;99.90;;;;;;5060273;28;20401;-62
2023/12/25 11:18:01;;;;;;;10.57;2.35;;;10.90;99.90;;;;;;5043094;28;20401;-62
2023/12/25 11:20:30;;;;;;;12.48;3.00;;;10.90;99.90;;;;;;5056194;28;20559;-62
2023/12/25 11:22:56;;;;;;;16.33;3.13;;;10.90;99.90;;;;;;5053480;28;20439;-62
2023/12/25 11:25:23;;;;;;;15.98;2.30;;;10.80;99.90;;;;;;5041952;28;20036;-63
2023/12/25 11:27:55;;;;;;;15.50;2.90;;;10.80;99.90;;;;;;5057382;28;20071;-64
2023/12/25 11:30:23;;;;;;;11.25;2.50;;;10.80;99.90;;;;;;5057014;28;20041;-63
2023/12/25 11:32:51;;;;;;;15.98;2.97;;;10.80;99.90;;;;;;5051416;28;20045;-62
2023/12/25 11:35:31;;;;;;;20.08;2.85;;;10.80;99.90;;;;;;5048260;28;20041;-62
2023/12/25 11:38:25;;;;;;;14.90;2.78;;;10.80;99.90;;;;;;5052345;28;20106;-62
2023/12/25 11:40:51;;;;;;;13.43;3.08;;;10.80;99.90;;;;;;5052864;28;20051;-62
2023/12/25 11:43:20;;;;;;;16.77;2.88;;;10.80;99.90;;;;;;5057837;28;20032;-62
2023/12/25 11:45:47;;;;;;;;;;;10.90;99.90;;;;;;5060312;28;20052;-63
2023/12/25 11:48:14;;;;;;;17.35;2.55;;;10.90;99.90;;;;;;5057477;28;19924;-62
2023/12/25 11:50:46;;;;;;;14.38;2.92;;;10.80;99.90;;;;;;5059336;28;20715;-62
2023/12/25 11:53:35;;;;;;;15.02;2.35;;;10.90;99.90;;;;;;5064205;28;20083;-63
2023/12/25 11:56:02;;;;;;;15.75;2.70;;;10.80;99.90;;;;;;5057564;28;20044;-62
2023/12/25 11:58:29;;;;;;;17.85;3.17;;;10.80;99.90;;;;;;5062932;28;20165;-63
2023/12/25 12:00:55;;;;;;;24.05;3.78;;;10.70;99.90;;;;;;5056769;28;20431;-63
2023/12/25 12:03:20;;;;;;;14.20;3.28;;;10.70;99.90;;;;;;5061289;28;20144;-62
2023/12/25 12:05:47;;;;;;;17.45;2.78;;;10.60;99.90;;;;;;5059063;28;20082;-62
2023/12/25 12:08:12;;;;;;;15.35;3.20;;;10.60;99.90;;;;;;5037574;28;20110;-62
2023/12/25 12:10:38;;;;;;;18.75;3.10;;;10.50;99.90;;;;;;5049809;28;20060;-63
2023/12/25 12:13:04;;;;;;;13.70;3.03;;;10.50;99.90;;;;;;5057847;28;20036;-62
2023/12/25 12:15:30;;;;;;;15.60;3.03;;;10.50;99.90;;;;;;5061184;28;20037;-62
2023/12/25 12:17:56;;;;;;;18.25;2.95;;;10.50;99.90;;;;;;5062247;28;20704;-62
2023/12/25 12:20:22;;;;;;;19.50;3.03;;;10.50;99.90;;;;;;5061612;28;20437;-65
2023/12/25 12:22:49;;;;;;;22.38;3.85;;;10.50;99.90;;;;;;5060361;28;20763;-62
2023/12/25 12:25:15;;;;;;;12.80;2.80;;;10.50;99.90;;;;;;5059355;28;20397;-62
2023/12/25 12:27:41;;;;;;;14.55;3.20;;;10.50;99.90;;;;;;5060122;28;20708;-62
2023/12/25 12:30:08;;;;;;;19.33;4.18;;;10.40;99.90;;;;;;5059106;28;20159;-62
2023/12/25 12:32:37;;;;;;;21.75;3.42;;;10.40;99.90;;;;;;5061095;28;20032;-63
2023/12/25 12:35:04;;;;;;;16.30;3.50;;;10.40;99.90;;;;;;5042479;28;20090;-62
2023/12/25 12:37:31;;;;;;;24.08;3.80;;;10.40;99.90;;;;;;5062466;28;20055;-62
2023/12/25 12:40:05;;;;;;;17.17;3.60;;;10.50;99.90;;;;;;5060539;28;20490;-62